Time;durP1;ratioP1;P1;durP2;ratioP2;P2;SDS_P1;SDS_P2;PMS_P1;PMS_P2;Temp;Humidity;BMP_temperature;BMP_pressure;BME280_temperature;BME280_humidity;BME280_pressure;Samples;Min_cycle;Max_cycle;Signal;HPM_P1;HPM_P2
2023/11/03 00:02:12;;;;;;;;;0.00;0.00;;;;;12.23;69.64;98196.63;5071944;28;47115;-61
2023/11/03 00:04:38;;;;;;;;;0.50;0.50;;;;;12.17;69.81;98186.41;5059900;28;45363;-61
2023/11/03 00:07:04;;;;;;;;;0.00;0.00;;;;;12.10;69.65;98183.38;5059690;28;45358;-61
2023/11/03 00:09:33;;;;;;;;;2.00;0.00;;;;;12.14;69.94;98195.50;5059774;28;45557;-61
2023/11/03 00:12:03;;;;;;;;;1.00;1.00;;;;;11.94;69.74;98172.19;5071361;28;48136;-61
2023/11/03 00:14:35;;;;;;;;;0.00;0.00;;;;;12.23;69.84;98208.16;5059127;28;45344;-61
2023/11/03 00:17:01;;;;;;;;;1.00;1.00;;;;;12.19;70.06;98219.22;5058320;28;45454;-61
2023/11/03 00:19:27;;;;;;;;;1.00;1.00;;;;;12.18;70.23;98213.03;5066604;28;45497;-61
2023/11/03 00:21:53;;;;;;;;;1.50;0.00;;;;;12.17;70.14;98205.97;5064283;27;46076;-61
2023/11/03 00:24:19;;;;;;;;;0.00;0.00;;;;;11.98;70.16;98184.34;5059577;28;45374;-61
2023/11/03 00:26:45;;;;;;;;;1.25;0.00;;;;;11.97;70.17;98178.13;5059202;28;45248;-61
2023/11/03 00:29:10;;;;;;;;;1.00;1.00;;;;;12.02;70.30;98197.34;5059428;28;45453;-61
2023/11/03 00:31:37;;;;;;;;;0.50;0.50;;;;;12.07;70.57;98210.34;5070366;28;46959;-61
2023/11/03 00:34:05;;;;;;;;;0.75;0.00;;;;;12.05;70.47;98210.47;5059381;28;45393;-61
2023/11/03 00:36:31;;;;;;;;;1.00;0.00;;;;;12.13;70.37;98225.03;5059383;28;45398;-61
2023/11/03 00:38:57;;;;;;;;;1.00;0.25;;;;;12.15;70.50;98231.97;5059362;28;45449;-61
2023/11/03 00:41:22;;;;;;;;;0.75;0.00;;;;;12.09;70.69;98227.13;5058927;28;45446;-61
2023/11/03 00:43:48;;;;;;;;;0.00;0.00;;;;;12.11;70.51;98243.91;5062438;28;45295;-61
2023/11/03 00:46:13;;;;;;;;;1.25;0.00;;;;;11.98;70.63;98221.78;5063614;28;45330;-61
2023/11/03 00:48:42;;;;;;;;;0.50;0.00;;;;;12.14;70.68;98245.47;5057371;28;45415;-61
2023/11/03 00:51:08;;;;;;;;;0.00;0.00;;;;;12.19;70.33;98253.97;5057570;28;47350;-61
2023/11/03 00:53:37;;;;;;;;;0.00;0.00;;;;;11.91;70.42;98205.38;5058963;28;45529;-61
2023/11/03 00:56:07;;;;;;;;;1.00;0.00;;;;;11.89;70.70;98209.94;5058861;28;45331;-61
2023/11/03 00:58:35;;;;;;;;;1.50;0.00;;;;;12.05;70.85;98242.53;5059178;28;45413;-61
2023/11/03 01:01:02;;;;;;;;;0.00;0.00;;;;;11.94;70.56;98231.84;5058806;28;45994;-61
2023/11/03 01:03:28;;;;;;;;;0.00;0.00;;;;;11.88;70.63;98216.25;5068274;28;45327;-61
2023/11/03 01:05:53;;;;;;;;;0.00;0.00;;;;;11.74;70.38;98200.44;5061801;27;45591;-61
2023/11/03 01:08:20;;;;;;;;;0.00;0.00;;;;;11.90;70.50;98225.00;5058902;28;45322;-61
2023/11/03 01:10:45;;;;;;;;;1.00;0.00;;;;;12.01;70.62;98241.09;5058649;28;45570;-61
2023/11/03 01:13:12;;;;;;;;;0.00;0.00;;;;;11.81;70.71;98207.88;5058591;28;45394;-61
2023/11/03 01:15:38;;;;;;;;;0.50;0.00;;;;;12.04;70.40;98238.19;5058648;28;45414;-61
2023/11/03 01:18:05;;;;;;;;;0.00;0.00;;;;;11.97;70.35;98230.75;5058937;28;45354;-61
2023/11/03 01:20:30;;;;;;;;;0.00;0.00;;;;;12.04;70.43;98254.22;5058442;28;45499;-61
2023/11/03 01:22:56;;;;;;;;;0.50;0.00;;;;;11.89;70.56;98233.97;5068334;28;45344;-61
2023/11/03 01:25:22;;;;;;;;;0.25;0.25;;;;;11.99;70.49;98248.38;5074165;28;45406;-61
2023/11/03 01:27:49;;;;;;;;;0.00;0.00;;;;;11.99;70.39;98248.38;5060611;28;45355;-61
2023/11/03 01:30:14;;;;;;;;;0.00;0.00;;;;;12.07;70.27;98260.31;5061912;28;45664;-61
2023/11/03 01:32:40;;;;;;;;;1.00;1.00;;;;;11.72;70.55;98202.38;5062222;28;45289;-61
2023/11/03 01:35:06;;;;;;;;;0.75;0.75;;;;;12.04;70.50;98264.06;5065623;28;45258;-61
2023/11/03 01:37:33;;;;;;;;;0.75;0.00;;;;;11.84;70.25;98241.50;5081155;28;45331;-61
2023/11/03 01:39:58;;;;;;;;;2.75;0.75;;;;;11.91;70.35;98237.44;5077406;28;47181;-61
2023/11/03 01:42:25;;;;;;;;;1.00;1.00;;;;;11.76;70.63;98223.41;5062807;28;45363;-61
2023/11/03 01:44:51;;;;;;;;;0.00;0.00;;;;;11.65;70.71;98210.03;5063749;27;45457;-61
2023/11/03 01:47:17;;;;;;;;;2.00;1.00;;;;;11.98;70.40;98265.41;5066084;28;45412;-61
2023/11/03 01:49:44;;;;;;;;;0.00;0.00;;;;;11.70;70.70;98218.53;5060404;28;47018;-61
2023/11/03 01:52:10;;;;;;;;;0.00;0.00;;;;;11.79;70.56;98236.50;5072443;28;45264;-61
2023/11/03 01:54:36;;;;;;;;;0.00;0.00;;;;;11.95;70.06;98287.00;5063525;27;45381;-61
2023/11/03 01:57:01;;;;;;;;;1.00;0.00;;;;;11.68;70.60;98244.53;5061735;28;45384;-61
2023/11/03 01:59:27;;;;;;;;;0.00;0.00;;;;;11.63;70.54;98244.03;5078634;28;46275;-61
2023/11/03 02:01:53;;;;;;;;;0.00;0.00;;;;;11.77;70.53;98273.22;5070724;28;45482;-60
2023/11/03 02:04:19;;;;;;;;;0.00;0.00;;;;;11.50;70.66;98223.59;5061654;28;45423;-61
2023/11/03 02:06:45;;;;;;;;;0.00;0.00;;;;;11.56;70.35;98216.94;5061509;28;45483;-61
2023/11/03 02:09:11;;;;;;;;;0.50;0.00;;;;;11.84;70.23;98269.13;5061363;28;45481;-61
2023/11/03 02:11:43;;;;;;;;;0.00;0.00;;;;;11.79;70.76;98271.25;5076989;28;45636;-61
2023/11/03 02:14:08;;;;;;;;;0.00;0.00;;;;;11.73;70.26;98261.06;5061443;28;45508;-61
2023/11/03 02:16:35;;;;;;;;;0.00;0.00;;;;;11.47;70.54;98212.28;5061562;28;45421;-61
2023/11/03 02:19:03;;;;;;;;;0.00;0.00;;;;;11.56;70.66;98224.06;5061253;28;45474;-61
2023/11/03 02:21:33;;;;;;;;;0.00;0.00;;;;;11.85;70.86;98276.16;5061247;28;45343;-61
2023/11/03 02:23:59;;;;;;;;;1.00;0.00;;;;;11.66;70.54;98252.66;5080123;28;45407;-61
2023/11/03 02:26:24;;;;;;;;;0.75;0.00;;;;;11.75;70.62;98277.81;5067812;27;45606;-61
2023/11/03 02:28:49;;;;;;;;;0.00;0.00;;;;;11.79;70.96;98281.94;5059799;28;46674;-61
2023/11/03 02:31:15;;;;;;;;;0.25;0.25;;;;;11.79;70.59;98281.94;5073030;28;45426;-61
2023/11/03 02:33:40;;;;;;;;;0.50;0.50;;;;;11.57;70.98;98233.81;5061172;27;45397;-61
2023/11/03 02:36:06;;;;;;;;;1.00;0.00;;;;;11.62;70.79;98243.16;5061150;28;45465;-61
2023/11/03 02:38:31;;;;;;;;;3.00;1.00;;;;;11.79;70.90;98276.59;5060834;28;46388;-61
2023/11/03 02:40:57;;;;;;;;;0.00;0.00;;;;;11.74;71.13;98272.59;5060902;28;45424;-61
2023/11/03 02:43:22;;;;;;;;;0.00;0.00;;;;;11.76;71.12;98274.19;5064031;28;45469;-61
2023/11/03 02:45:49;;;;;;;;;0.00;0.00;;;;;11.58;70.94;98243.53;5064427;28;45302;-61
2023/11/03 02:48:16;;;;;;;;;0.00;0.00;;;;;11.48;70.79;98246.91;5060102;28;47115;-61
2023/11/03 02:50:41;;;;;;;;;0.25;0.00;;;;;11.59;70.77;98264.78;5073652;28;45326;-61
2023/11/03 02:53:07;;;;;;;;;0.00;0.00;;;;;11.55;71.00;98252.63;5060352;28;45531;-61
2023/11/03 02:55:33;;;;;;;;;0.00;0.00;;;;;11.47;71.00;98250.53;5059549;28;45552;-61
2023/11/03 02:57:59;;;;;;;;;0.00;0.00;;;;;11.60;70.61;98271.84;5059299;28;47540;-61
2023/11/03 03:00:25;;;;;;;;;0.00;0.00;;;;;11.49;71.30;98255.75;5073628;28;45679;-61
2023/11/03 03:02:51;;;;;;;;;0.00;0.00;;;;;11.43;71.22;98267.78;5081127;27;45498;-61
2023/11/03 03:05:16;;;;;;;;;0.00;0.00;;;;;11.37;71.26;98252.19;5066803;28;45529;-61
2023/11/03 03:07:45;;;;;;;;;0.00;0.00;;;;;11.60;71.28;98292.38;5080130;28;45472;-61
2023/11/03 03:10:11;;;;;;;;;0.75;0.00;;;;;11.51;71.41;98283.22;5080986;27;45604;-61
2023/11/03 03:12:36;;;;;;;;;1.25;0.25;;;;;11.37;71.44;98257.53;5072749;28;45500;-61
2023/11/03 03:15:04;;;;;;;;;1.25;0.00;;;;;11.62;71.40;98295.75;5073917;28;46066;-61
2023/11/03 03:17:30;;;;;;;;;2.00;0.00;;;;;11.42;71.05;98273.22;5080759;27;45663;-61
2023/11/03 03:19:55;;;;;;;;;2.00;0.00;;;;;11.42;71.07;98271.41;5080522;27;45849;-61
2023/11/03 03:22:21;;;;;;;;;1.00;0.00;;;;;11.43;71.32;98267.78;5080910;28;45318;-61
2023/11/03 03:24:46;;;;;;;;;0.00;0.00;;;;;11.36;71.04;98263.00;5080704;27;45441;-61
2023/11/03 03:27:11;;;;;;;;;1.00;1.00;;;;;11.50;71.30;98286.84;5080394;27;46042;-61
2023/11/03 03:29:37;;;;;;;;;0.50;0.00;;;;;11.56;71.22;98304.22;5065360;28;45329;-61
2023/11/03 03:32:03;;;;;;;;;0.25;0.00;;;;;11.37;71.37;98273.56;5074328;27;45655;-61
2023/11/03 03:34:29;;;;;;;;;1.00;0.00;;;;;11.57;71.21;98308.63;5073558;28;45486;-61
2023/11/03 03:36:54;;;;;;;;;1.25;1.25;;;;;11.27;71.33;98270.72;5080390;27;45447;-61
2023/11/03 03:39:20;;;;;;;;;0.00;0.00;;;;;11.45;71.03;98300.56;5080501;27;45389;-61
2023/11/03 03:41:50;;;;;;;;;0.00;0.00;;;;;11.29;71.47;98265.28;5080217;27;45511;-61
2023/11/03 03:44:15;;;;;;;;;0.00;0.00;;;;;11.50;71.17;98302.88;5065158;28;46041;-61
2023/11/03 03:46:41;;;;;;;;;1.00;0.00;;;;;11.45;71.42;98291.69;5072370;28;45487;-61
2023/11/03 03:49:06;;;;;;;;;1.25;1.00;;;;;11.50;71.46;98301.06;5073269;28;47434;-61
2023/11/03 03:51:31;;;;;;;;;1.00;1.00;;;;;11.50;71.39;98298.38;5078527;28;45590;-61
2023/11/03 03:53:57;;;;;;;;;0.00;0.00;;;;;11.28;71.39;98269.78;5065596;28;45548;-61
2023/11/03 03:56:25;;;;;;;;;1.00;1.00;;;;;11.46;71.31;98293.38;5079358;28;50652;-61
2023/11/03 03:58:53;;;;;;;;;0.50;0.00;;;;;11.45;71.35;98300.56;5065186;28;45426;-61
2023/11/03 04:01:20;;;;;;;;;2.00;0.00;;;;;11.27;71.47;98264.53;5065629;28;45498;-61
2023/11/03 04:03:45;;;;;;;;;1.00;0.00;;;;;11.42;71.38;98295.44;5078125;28;45513;-61
2023/11/03 04:06:10;;;;;;;;;0.00;0.00;;;;;11.46;71.35;98317.41;5059632;28;46179;-61
2023/11/03 04:08:37;;;;;;;;;0.00;0.00;;;;;11.34;71.22;98305.00;5059727;28;45460;-61
2023/11/03 04:11:05;;;;;;;;;0.00;0.00;;;;;11.31;71.18;98306.09;5059682;28;45321;-61
2023/11/03 04:13:31;;;;;;;;;0.00;0.00;;;;;11.40;71.35;98332.09;5058292;28;45489;-61
2023/11/03 04:15:57;;;;;;;;;0.50;0.00;;;;;11.45;71.47;98337.94;5058013;28;45511;-61
2023/11/03 04:18:22;;;;;;;;;1.50;1.00;;;;;11.26;71.46;98306.44;5059543;28;45307;-61
2023/11/03 04:20:48;;;;;;;;;0.00;0.00;;;;;11.25;71.42;98303.88;5059504;28;45375;-61
2023/11/03 04:23:14;;;;;;;;;1.00;1.00;;;;;11.37;71.28;98320.78;5058088;28;45402;-61
2023/11/03 04:25:39;;;;;;;;;2.00;0.25;;;;;11.22;71.22;98299.59;5058071;28;45623;-61
2023/11/03 04:28:06;;;;;;;;;0.50;0.50;;;;;11.08;71.47;98281.09;5059254;28;45708;-61
2023/11/03 04:30:34;;;;;;;;;0.00;0.00;;;;;11.12;71.93;98299.41;5059395;28;45380;-61
2023/11/03 04:33:00;;;;;;;;;0.25;0.25;;;;;11.11;71.61;98312.91;5059345;28;45322;-61
2023/11/03 04:35:25;;;;;;;;;0.00;0.00;;;;;11.13;71.32;98311.81;5048677;28;46206;-61
2023/11/03 04:37:51;;;;;;;;;2.75;0.00;;;;;11.32;71.40;98351.34;5074819;28;45338;-61
2023/11/03 04:40:19;;;;;;;;;1.00;1.00;;;;;11.26;71.60;98334.94;5059439;28;45297;-61
2023/11/03 04:42:45;;;;;;;;;3.00;0.00;;;;;11.27;71.51;98340.16;5061801;28;45537;-61
2023/11/03 04:45:10;;;;;;;;;0.00;0.00;;;;;11.23;71.83;98332.50;5059012;28;46182;-61
2023/11/03 04:47:35;;;;;;;;;2.00;0.00;;;;;11.23;71.84;98338.69;5063416;28;45473;-61
2023/11/03 04:50:01;;;;;;;;;1.25;0.00;;;;;11.25;71.89;98344.75;5059338;28;45453;-61
2023/11/03 04:52:26;;;;;;;;;0.75;0.75;;;;;11.05;71.67;98319.53;5058973;28;45368;-61
2023/11/03 04:54:52;;;;;;;;;0.00;0.00;;;;;11.08;72.16;98334.47;5065063;28;46977;-61
2023/11/03 04:57:18;;;;;;;;;4.00;1.25;;;;;10.80;71.67;98277.75;5064963;27;45357;-61
2023/11/03 04:59:44;;;;;;;;;0.75;0.75;;;;;11.04;71.98;98323.19;5065054;28;45495;-61
2023/11/03 05:02:09;;;;;;;;;0.50;0.25;;;;;10.97;71.71;98316.56;5066000;27;45314;-61
2023/11/03 05:04:35;;;;;;;;;0.75;0.75;;;;;10.98;71.82;98328.13;5062470;28;45474;-61
2023/11/03 05:07:01;;;;;;;;;0.25;0.25;;;;;10.88;72.04;98306.56;5074550;28;45474;-61
2023/11/03 05:09:26;;;;;;;;;1.00;1.00;;;;;11.11;71.92;98359.13;5062773;28;45382;-61
2023/11/03 05:11:52;;;;;;;;;0.50;0.00;;;;;10.88;71.94;98322.59;5062200;28;45236;-61
2023/11/03 05:14:17;;;;;;;;;4.25;1.75;;;;;11.00;72.20;98342.19;5067834;28;46614;-61
2023/11/03 05:16:43;;;;;;;;;2.00;1.00;;;;;10.87;72.37;98326.19;5068648;27;45525;-61
2023/11/03 05:19:09;;;;;;;;;0.00;0.00;;;;;11.06;72.42;98355.94;5068211;28;45379;-61
2023/11/03 05:21:35;;;;;;;;;2.50;1.50;;;;;10.99;72.43;98345.81;5068836;28;45437;-61
2023/11/03 05:24:02;;;;;;;;;1.00;1.00;;;;;10.91;72.30;98339.22;5069107;28;45544;-61
2023/11/03 05:26:27;;;;;;;;;1.00;0.00;;;;;11.06;72.23;98363.97;5067323;28;45429;-61
2023/11/03 05:28:54;;;;;;;;;2.75;1.25;;;;;10.83;72.40;98341.59;5082656;27;45890;-61
2023/11/03 05:31:19;;;;;;;;;1.00;1.00;;;;;10.65;72.38;98309.06;5080546;28;45536;-61
2023/11/03 05:33:44;;;;;;;;;0.50;0.50;;;;;11.04;72.07;98376.56;5069199;28;45369;-61
2023/11/03 05:36:11;;;;;;;;;1.00;1.00;;;;;10.81;72.29;98337.31;5082365;27;45326;-61
2023/11/03 05:38:37;;;;;;;;;1.00;1.00;;;;;10.78;72.19;98333.06;5082561;28;45319;-61
2023/11/03 05:41:03;;;;;;;;;2.00;1.00;;;;;10.75;72.26;98323.44;5082082;27;45539;-61
2023/11/03 05:43:30;;;;;;;;;2.00;1.00;;;;;10.81;72.03;98338.19;5074942;27;45836;-61
2023/11/03 05:45:55;;;;;;;;;1.00;0.00;;;;;10.99;72.28;98367.16;5065611;28;45619;-61
2023/11/03 05:48:21;;;;;;;;;2.25;1.00;;;;;10.79;72.25;98340.09;5061995;28;45470;-61
2023/11/03 05:50:46;;;;;;;;;2.75;1.50;;;;;10.98;72.08;98376.16;5061771;28;45472;-61
2023/11/03 05:53:11;;;;;;;;;0.25;0.25;;;;;10.77;72.66;98344.69;5060267;28;48069;-61
2023/11/03 05:55:37;;;;;;;;;1.00;1.00;;;;;10.98;72.31;98382.34;5061728;28;45444;-60
2023/11/03 05:58:03;;;;;;;;;1.00;1.00;;;;;10.68;72.05;98329.34;5061835;28;45394;-61
2023/11/03 06:00:30;;;;;;;;;1.75;0.75;;;;;10.67;72.36;98335.63;5061702;28;45650;-61
2023/11/03 06:02:55;;;;;;;;;1.00;1.00;;;;;10.91;72.20;98378.41;5060232;28;48320;-63
2023/11/03 06:05:21;;;;;;;;;2.00;1.00;;;;;10.88;72.64;98378.63;5073918;28;45423;-63
2023/11/03 06:07:46;;;;;;;;;2.25;1.00;;;;;10.71;72.28;98359.34;5061659;28;45297;-63
2023/11/03 06:10:13;;;;;;;;;0.00;0.00;;;;;10.80;72.28;98378.31;5061497;28;45306;-61
2023/11/03 06:12:39;;;;;;;;;0.00;0.00;;;;;10.55;72.38;98345.38;5063467;28;47387;-61
2023/11/03 06:15:05;;;;;;;;;2.75;0.50;;;;;10.51;72.72;98341.22;5059895;28;45462;-61
2023/11/03 06:17:31;;;;;;;;;1.50;0.25;;;;;10.83;72.84;98394.13;5061773;28;45377;-61
2023/11/03 06:19:56;;;;;;;;;3.00;2.00;;;;;10.64;72.59;98379.41;5061257;28;45430;-61
2023/11/03 06:22:22;;;;;;;;;1.75;1.00;;;;;10.68;73.03;98386.22;5067215;28;47403;-61
2023/11/03 06:24:47;;;;;;;;;1.25;1.00;;;;;10.48;72.39;98368.94;5067466;27;45387;-61
2023/11/03 06:27:13;;;;;;;;;0.50;0.50;;;;;10.63;72.78;98388.38;5060995;28;45231;-61
2023/11/03 06:29:39;;;;;;;;;2.00;0.00;;;;;10.65;72.87;98401.59;5061159;28;45321;-61
2023/11/03 06:32:05;;;;;;;;;0.00;0.00;;;;;10.44;72.65;98369.25;5061166;28;45921;-61
2023/11/03 06:34:30;;;;;;;;;1.00;1.00;;;;;10.56;72.88;98384.44;5061033;28;45268;-61
2023/11/03 06:36:56;;;;;;;;;1.00;0.00;;;;;10.56;72.88;98384.44;5061399;28;45290;-61
2023/11/03 06:39:23;;;;;;;;;3.00;0.00;;;;;10.71;72.55;98410.03;5061011;28;45311;-61
2023/11/03 06:41:48;;;;;;;;;1.00;0.00;;;;;10.66;72.60;98398.81;5060755;28;45735;-61
2023/11/03 06:44:14;;;;;;;;;2.00;0.75;;;;;10.49;72.77;98386.66;5062973;28;45333;-61
2023/11/03 06:46:41;;;;;;;;;0.25;0.25;;;;;10.63;72.93;98407.03;5064783;28;45471;-60
2023/11/03 06:49:07;;;;;;;;;2.75;2.75;;;;;10.61;73.08;98416.09;5073123;28;45672;-61
2023/11/03 06:51:33;;;;;;;;;1.25;1.00;;;;;10.61;73.05;98416.09;5061011;28;45463;-61
2023/11/03 06:53:58;;;;;;;;;1.50;1.00;;;;;10.47;72.96;98403.72;5060693;28;45386;-61
2023/11/03 06:56:25;;;;;;;;;2.00;1.00;;;;;10.37;73.02;98383.03;5060997;28;45295;-61
2023/11/03 06:58:50;;;;;;;;;3.00;2.00;;;;;10.69;72.92;98443.97;5060701;28;45491;-61
2023/11/03 07:01:16;;;;;;;;;7.75;5.50;;;;;10.69;73.13;98443.09;5060811;28;45898;-61
2023/11/03 07:03:41;;;;;;;;;2.00;2.00;;;;;10.53;72.74;98413.97;5060492;28;45306;-61
2023/11/03 07:06:08;;;;;;;;;2.00;2.00;;;;;10.58;72.96;98433.19;5060810;28;45317;-61
2023/11/03 07:08:33;;;;;;;;;1.75;0.75;;;;;10.66;73.15;98438.84;5060545;28;45490;-61
2023/11/03 07:10:59;;;;;;;;;0.00;0.00;;;;;10.63;73.25;98438.22;5059000;28;46262;-61
2023/11/03 07:13:25;;;;;;;;;2.00;1.00;;;;;10.62;73.50;98442.66;5072544;28;45509;-61
2023/11/03 07:15:51;;;;;;;;;1.00;1.00;;;;;10.42;72.95;98422.72;5059233;28;45371;-61
2023/11/03 07:18:16;;;;;;;;;2.00;2.00;;;;;10.46;72.93;98424.22;5060312;28;45485;-61
2023/11/03 07:20:42;;;;;;;;;4.50;2.00;;;;;10.55;72.95;98447.56;5066013;28;48141;-61
2023/11/03 07:23:08;;;;;;;;;3.75;2.75;;;;;10.42;73.30;98428.03;5066688;27;45465;-61
2023/11/03 07:25:33;;;;;;;;;4.00;2.00;;;;;10.41;73.50;98431.69;5044705;28;45332;-61
2023/11/03 07:27:58;;;;;;;;;3.50;2.00;;;;;10.49;73.38;98444.47;5073741;28;45460;-61
2023/11/03 07:30:24;;;;;;;;;1.25;1.00;;;;;10.49;73.25;98437.34;5072106;28;46340;-60
2023/11/03 07:32:49;;;;;;;;;3.50;1.00;;;;;10.69;73.36;98476.00;5060779;28;45381;-61
2023/11/03 07:35:15;;;;;;;;;2.00;1.00;;;;;10.50;73.25;98440.88;5079905;28;45324;-61
2023/11/03 07:37:42;;;;;;;;;1.75;1.75;;;;;10.46;73.33;98429.56;5080517;27;45437;-61
2023/11/03 07:40:07;;;;;;;;;4.25;1.00;;;;;10.41;73.38;98414.81;5080200;28;45451;-61
2023/11/03 07:42:33;;;;;;;;;2.00;1.00;;;;;10.54;73.54;98437.00;5080021;27;45523;-61
2023/11/03 07:44:59;;;;;;;;;1.25;1.25;;;;;10.49;73.42;98433.81;5060691;27;45326;-61
2023/11/03 07:47:25;;;;;;;;;2.25;1.00;;;;;10.69;72.68;98459.09;5064196;28;45493;-60
2023/11/03 07:49:50;;;;;;;;;1.00;1.00;;;;;10.75;73.25;98477.38;5059878;28;46281;-61
2023/11/03 07:52:16;;;;;;;;;2.50;1.25;;;;;10.73;73.36;98471.28;5059820;28;45441;-61
2023/11/03 07:54:43;;;;;;;;;2.00;1.00;;;;;10.55;73.18;98447.56;5059885;28;45383;-61
2023/11/03 07:57:08;;;;;;;;;4.00;2.25;;;;;10.74;73.63;98470.31;5059775;28;45502;-61
2023/11/03 07:59:35;;;;;;;;;1.25;1.00;;;;;10.34;73.31;98415.25;5059455;28;46180;-61
2023/11/03 08:02:00;;;;;;;;;2.75;2.00;;;;;10.48;73.65;98430.28;5070902;28;45914;-61
2023/11/03 08:04:25;;;;;;;;;1.00;1.00;;;;;10.75;73.59;98472.03;5061097;27;45497;-61
2023/11/03 08:06:51;;;;;;;;;2.00;1.00;;;;;10.64;73.60;98451.44;5066990;28;45540;-61
2023/11/03 08:09:17;;;;;;;;;4.00;1.00;;;;;10.60;73.26;98438.41;5058091;28;47503;-61
2023/11/03 08:11:43;;;;;;;;;1.50;1.50;;;;;10.61;73.72;98443.66;5058188;28;45639;-61
2023/11/03 08:14:10;;;;;;;;;1.25;1.00;;;;;10.60;73.41;98441.94;5059370;28;45452;-61
2023/11/03 08:16:42;;;;;;;;;4.00;2.00;;;;;10.68;73.40;98458.25;5058163;28;45536;-61
2023/11/03 08:19:08;;;;;;;;;5.00;5.00;;;;;10.67;73.85;98459.22;5059440;28;46614;-61
2023/11/03 08:21:41;;;;;;;;;7.00;1.50;;;;;10.86;73.67;98492.63;5058316;28;45457;-61
2023/11/03 08:24:13;;;;;;;;;2.50;2.00;;;;;10.73;73.93;98473.97;5066413;28;45345;-61
2023/11/03 08:26:39;;;;;;;;;2.00;1.00;;;;;10.77;73.69;98474.59;5063633;28;45433;-61
2023/11/03 08:29:05;;;;;;;;;3.00;2.50;;;;;10.57;74.00;98443.00;5065176;28;47154;-60
2023/11/03 08:31:31;;;;;;;;;2.00;1.00;;;;;10.70;74.12;98459.00;5065153;27;45268;-61
2023/11/03 08:33:56;;;;;;;;;3.25;1.75;;;;;10.68;74.00;98460.94;5057963;28;45399;-60
2023/11/03 08:36:22;;;;;;;;;1.25;1.25;;;;;10.77;73.97;98485.28;5059624;28;45599;-61
2023/11/03 08:38:51;;;;;;;;;5.50;2.00;;;;;10.79;74.36;98486.84;5079461;27;46213;-61
2023/11/03 08:41:16;;;;;;;;;2.00;2.00;;;;;10.83;74.39;98500.88;5064158;28;45757;-61
2023/11/03 08:43:43;;;;;;;;;4.50;2.00;;;;;10.62;74.27;98471.16;5070186;27;45440;-61
2023/11/03 08:46:09;;;;;;;;;1.00;1.00;;;;;10.75;74.69;98498.72;5063076;28;45503;-61
2023/11/03 08:48:36;;;;;;;;;3.00;1.75;;;;;10.83;74.26;98512.38;5059154;28;46203;-60
2023/11/03 08:51:01;;;;;;;;;0.00;0.00;;;;;10.53;74.65;98456.66;5058924;28;45310;-61
2023/11/03 08:53:26;;;;;;;;;2.00;0.25;;;;;10.55;74.51;98458.25;5059221;28;45350;-61
2023/11/03 08:55:52;;;;;;;;;1.00;1.00;;;;;10.66;74.85;98476.19;5058576;28;48031;-61
2023/11/03 08:58:17;;;;;;;;;1.00;1.00;;;;;10.70;74.84;98483.03;5058929;28;46701;-60
2023/11/03 09:00:44;;;;;;;;;1.00;1.00;;;;;10.84;74.61;98505.22;5058796;28;45326;-60
2023/11/03 09:03:10;;;;;;;;;0.00;0.00;;;;;10.62;74.81;98465.84;5066961;28;45414;-60
2023/11/03 09:05:36;;;;;;;;;0.50;0.50;;;;;10.83;74.67;98492.88;5074398;28;45537;-61
2023/11/03 09:08:02;;;;;;;;;2.00;1.00;;;;;10.80;74.79;98488.56;5057511;28;47830;-61
2023/11/03 09:10:31;;;;;;;;;0.75;0.75;;;;;10.74;74.74;98476.53;5059681;28;45445;-61
2023/11/03 09:12:57;;;;;;;;;2.00;1.00;;;;;10.71;75.00;98459.88;5079090;28;45310;-61
2023/11/03 09:15:23;;;;;;;;;1.00;1.00;;;;;10.73;75.03;98469.47;5078880;27;45685;-61
2023/11/03 09:17:48;;;;;;;;;1.00;1.00;;;;;10.79;75.12;98470.84;5079166;27;46345;-61
2023/11/03 09:20:17;;;;;;;;;0.25;0.25;;;;;10.71;74.66;98468.72;5063897;28;45447;-60
2023/11/03 09:22:44;;;;;;;;;0.25;0.00;;;;;10.70;74.76;98469.69;5079349;27;45385;-61
2023/11/03 09:25:09;;;;;;;;;1.50;1.00;;;;;10.97;74.36;98513.25;5078708;27;45453;-61
2023/11/03 09:27:35;;;;;;;;;0.00;0.00;;;;;10.76;74.47;98479.09;5067962;28;47480;-61
2023/11/03 09:30:00;;;;;;;;;1.00;0.25;;;;;10.70;74.41;98469.69;5087019;27;45868;-61
2023/11/03 09:32:27;;;;;;;;;1.00;1.00;;;;;10.76;74.34;98497.78;5067162;28;45381;-61
2023/11/03 09:34:53;;;;;;;;;1.00;1.00;;;;;10.69;74.92;98477.78;5062230;27;45574;-60
2023/11/03 09:37:19;;;;;;;;;1.00;1.00;;;;;10.98;74.85;98520.31;5057334;28;46075;-61
2023/11/03 09:39:45;;;;;;;;;3.00;2.00;;;;;11.05;75.16;98530.44;5058336;28;45394;-61
2023/11/03 09:42:11;;;;;;;;;2.00;2.00;;;;;10.67;75.06;98472.56;5058491;28;45331;-60
2023/11/03 09:44:38;;;;;;;;;0.50;0.50;;;;;10.83;74.72;98504.38;5062463;28;45484;-61
2023/11/03 09:47:05;;;;;;;;;0.75;0.00;;;;;10.78;74.66;98487.84;5068488;27;46366;-61
2023/11/03 09:49:31;;;;;;;;;0.00;0.00;;;;;10.84;75.09;98497.22;5061282;28;45451;-61
2023/11/03 09:52:05;;;;;;;;;1.00;1.00;;;;;11.02;74.86;98538.66;5062116;28;45314;-60
2023/11/03 09:54:35;;;;;;;;;0.50;0.50;;;;;10.94;74.48;98509.84;5061551;28;45341;-61
2023/11/03 09:57:08;;;;;;;;;4.00;2.00;;;;;11.16;74.79;98545.72;5072165;28;48292;-61
2023/11/03 09:59:34;;;;;;;;;1.00;1.00;;;;;11.18;74.84;98546.47;5062018;27;45481;-60
2023/11/03 10:02:09;;;;;;;;;1.00;1.00;;;;;11.13;74.72;98527.25;5060597;28;45528;-60
2023/11/03 10:04:35;;;;;;;;;1.00;1.00;;;;;11.03;74.96;98516.34;5069169;28;45397;-61
2023/11/03 10:07:03;;;;;;;;;1.00;0.25;;;;;11.25;74.70;98541.53;5066560;28;47277;-61
2023/11/03 10:09:28;;;;;;;;;2.00;2.00;;;;;11.03;74.54;98504.81;5073164;28;45646;-61
2023/11/03 10:11:54;;;;;;;;;1.00;1.00;;;;;11.31;74.47;98541.13;5075541;28;45571;-61
2023/11/03 10:14:19;;;;;;;;;0.75;0.75;;;;;11.10;74.57;98514.09;5081682;27;45429;-61
2023/11/03 10:16:48;;;;;;;;;3.00;0.25;;;;;11.30;74.50;98539.41;5080121;28;46140;-61
2023/11/03 10:19:14;;;;;;;;;0.75;0.00;;;;;11.18;74.33;98524.25;5081837;27;45720;-61
2023/11/03 10:21:40;;;;;;;;;0.00;0.00;;;;;11.26;74.25;98535.22;5080314;28;45607;-61
2023/11/03 10:24:05;;;;;;;;;0.00;0.00;;;;;11.25;74.54;98530.88;5072502;28;45456;-61
2023/11/03 10:26:32;;;;;;;;;1.75;1.00;;;;;11.24;74.38;98538.03;5075268;28;45835;-61
2023/11/03 10:28:57;;;;;;;;;1.50;0.00;;;;;11.11;74.40;98507.81;5055807;28;45696;-61
2023/11/03 10:31:26;;;;;;;;;1.00;1.00;;;;;11.40;74.67;98551.13;5073367;28;45347;-61
2023/11/03 10:33:54;;;;;;;;;1.00;1.00;;;;;11.25;74.77;98523.69;5061288;28;45306;-61
2023/11/03 10:36:19;;;;;;;;;1.00;1.00;;;;;11.30;74.80;98518.03;5060925;28;45450;-61
2023/11/03 10:38:45;;;;;;;;;1.25;0.75;;;;;11.12;74.47;98490.81;5067804;28;45449;-61
2023/11/03 10:41:11;;;;;;;;;1.00;0.25;;;;;11.48;74.69;98542.59;5066408;27;45459;-61
2023/11/03 10:43:45;;;;;;;;;1.00;0.00;;;;;11.46;75.22;98533.81;5064048;28;45454;-61
2023/11/03 10:46:18;;;;;;;;;0.75;0.75;;;;;11.52;74.42;98535.22;5072945;28;47312;-61
2023/11/03 10:48:55;;;;;;;;;1.00;0.75;;;;;11.55;74.53;98537.66;5043103;28;45835;-61
2023/11/03 10:52:03;;;;;;;;;1.75;0.00;;;;;11.55;74.46;98530.50;5060969;28;45452;-61
2023/11/03 10:54:44;;;;;;;;;2.75;1.00;;;;;11.41;74.29;98502.09;5060823;28;45468;-61
2023/11/03 10:57:15;;;;;;;;;0.75;0.75;;;;;11.65;74.08;98539.56;5071896;28;47087;-61
2023/11/03 10:59:44;;;;;;;;;0.00;0.00;;;;;11.59;74.28;98521.28;5059620;27;45311;-61
2023/11/03 11:02:31;;;;;;;;;0.00;0.00;;;;;11.79;73.82;98538.53;5060924;28;45560;-61
2023/11/03 11:05:06;;;;;;;;;1.00;1.00;;;;;11.69;73.63;98516.13;5060682;28;45322;-61
2023/11/03 11:07:34;;;;;;;;;0.00;0.00;;;;;11.71;73.82;98513.34;5060376;28;46535;-61
2023/11/03 11:10:00;;;;;;;;;1.00;0.00;;;;;11.65;74.00;98504.81;5060702;28;45565;-61
2023/11/03 11:12:50;;;;;;;;;1.25;0.00;;;;;11.64;73.75;98495.09;5077563;28;45377;-61
2023/11/03 11:15:19;;;;;;;;;2.00;1.00;;;;;11.85;73.67;98523.91;5065858;27;45505;-61
2023/11/03 11:17:45;;;;;;;;;0.00;0.00;;;;;11.45;73.48;98451.97;5060385;28;46617;-61
2023/11/03 11:20:15;;;;;;;;;1.00;1.00;;;;;11.80;73.25;98513.53;5060333;28;45461;-61
2023/11/03 11:22:45;;;;;;;;;1.50;0.50;;;;;11.90;73.43;98520.91;5068418;28;45422;-61
2023/11/03 11:25:11;;;;;;;;;0.00;0.00;;;;;11.63;73.66;98487.19;5064204;27;45555;-61
2023/11/03 11:27:40;;;;;;;;;0.00;0.00;;;;;11.80;73.01;98502.84;5068377;28;48355;-61
2023/11/03 11:30:14;;;;;;;;;1.00;0.00;;;;;12.03;73.01;98541.28;5063411;27;45451;-61
2023/11/03 11:32:52;;;;;;;;;2.75;0.25;;;;;11.97;72.87;98527.53;5060388;28;45481;-61